Time;durP1;ratioP1;P1;durP2;ratioP2;P2;SDS_P1;SDS_P2;PMS_P1;PMS_P2;Temp;Humidity;BMP_temperature;BMP_pressure;BME280_temperature;BME280_humidity;BME280_pressure;Samples;Min_cycle;Max_cycle;Signal;HPM_P1;HPM_P2
2021/07/14 00:00:21;;;;;;;18.33;16.47;;;20.70;99.90;;;;;;5035130;28;20503;-69
2021/07/14 00:02:48;;;;;;;18.03;16.23;;;20.70;99.90;;;;;;5034627;28;20257;-67
2021/07/14 00:05:17;;;;;;;17.73;15.93;;;20.70;99.90;;;;;;5035037;28;20217;-67
2021/07/14 00:07:43;;;;;;;18.13;16.43;;;20.70;99.90;;;;;;5034715;28;20260;-68
2021/07/14 00:10:14;;;;;;;18.40;16.57;;;20.70;99.90;;;;;;5026593;28;20225;-67
2021/07/14 00:12:45;;;;;;;17.60;15.80;;;20.70;99.90;;;;;;5014996;28;20478;-67
2021/07/14 00:23:29;;;;;;;17.60;15.80;;;20.70;99.90;;;;;;5034536;28;20206;-68
2021/07/14 00:25:55;;;;;;;18.23;16.47;;;20.70;99.90;;;;;;5034461;28;20225;-67
2021/07/14 00:28:21;;;;;;;19.33;16.67;;;20.70;99.90;;;;;;5034480;28;20670;-67
2021/07/14 00:30:53;;;;;;;19.23;16.20;;;20.60;99.90;;;;;;5034591;28;20197;-67
2021/07/14 00:33:19;;;;;;;17.63;16.03;;;20.60;99.90;;;;;;5035202;28;20647;-69
2021/07/14 00:35:44;;;;;;;18.20;16.50;;;20.60;99.90;;;;;;5034668;28;20182;-69
2021/07/14 00:38:11;;;;;;;19.17;17.27;;;20.60;99.90;;;;;;5034565;28;20200;-69
2021/07/14 00:40:36;;;;;;;18.37;16.73;;;20.60;99.90;;;;;;5034467;28;20174;-68
2021/07/14 00:43:02;;;;;;;19.00;17.23;;;20.50;99.90;;;;;;5033915;28;20205;-68
2021/07/14 00:45:27;;;;;;;18.03;16.23;;;20.50;99.90;;;;;;5034296;28;20194;-68
2021/07/14 00:47:57;;;;;;;18.20;16.43;;;20.60;99.90;;;;;;5034214;28;20667;-68
2021/07/14 00:50:22;;;;;;;18.93;16.83;;;20.50;99.90;;;;;;5034540;28;20175;-68
2021/07/14 00:52:48;;;;;;;18.13;16.43;;;20.50;99.90;;;;;;5033914;28;20194;-68
2021/07/14 00:55:14;;;;;;;18.40;16.60;;;20.50;99.90;;;;;;5034207;28;20536;-68
2021/07/14 00:57:40;;;;;;;18.37;16.37;;;20.50;99.90;;;;;;5032880;28;20202;-69
2021/07/14 01:00:08;;;;;;;19.17;17.17;;;20.50;99.90;;;;;;5034018;28;20178;-67
2021/07/14 01:02:34;;;;;;;18.97;16.50;;;20.50;99.90;;;;;;5034085;28;20174;-67
2021/07/14 01:05:20;;;;;;;18.10;16.20;;;20.50;99.90;;;;;;5033823;28;20198;-68
2021/07/14 01:08:16;;;;;;;19.47;17.67;;;20.50;99.90;;;;;;5062393;22;20754;-67
2021/07/14 01:10:51;;;;;;;19.13;16.90;;;20.50;99.90;;;;;;5053710;28;20174;-67
2021/07/14 01:13:36;;;;;;;18.77;16.77;;;20.50;99.90;;;;;;5053975;28;20231;-67
2021/07/14 01:16:07;;;;;;;18.27;16.53;;;20.50;99.90;;;;;;5053899;28;20219;-67
2021/07/14 01:18:50;;;;;;;18.33;16.50;;;20.50;99.90;;;;;;5053430;28;20244;-67
2021/07/14 01:21:28;;;;;;;17.60;16.10;;;20.50;99.90;;;;;;5053722;28;20177;-67
2021/07/14 01:24:12;;;;;;;18.80;16.87;;;20.50;99.90;;;;;;5053364;28;20183;-68
2021/07/14 01:26:53;;;;;;;18.83;16.80;;;20.50;99.90;;;;;;5053519;28;20225;-67
2021/07/14 01:29:20;;;;;;;18.87;16.87;;;20.50;99.90;;;;;;5053303;28;20232;-67
2021/07/14 01:31:48;;;;;;;18.80;17.00;;;20.50;99.90;;;;;;5053345;28;20537;-67
2021/07/14 01:34:14;;;;;;;19.27;17.40;;;20.50;99.90;;;;;;5052792;28;20186;-67
2021/07/14 01:36:44;;;;;;;17.77;15.97;;;20.50;99.90;;;;;;5053348;28;20169;-66
2021/07/14 01:39:11;;;;;;;21.10;19.00;;;20.40;99.90;;;;;;5053176;28;20182;-67
2021/07/14 01:41:41;;;;;;;19.70;17.80;;;20.40;99.90;;;;;;5053217;28;20170;-66
2021/07/14 01:44:07;;;;;;;18.50;16.80;;;20.40;99.90;;;;;;5052955;28;20166;-67
2021/07/14 01:46:35;;;;;;;20.57;17.03;;;20.40;99.90;;;;;;5053599;28;20202;-67
2021/07/14 01:49:18;;;;;;;20.77;17.57;;;20.40;99.90;;;;;;5062457;28;20186;-66
2021/07/14 01:51:48;;;;;;;18.83;16.80;;;20.40;99.90;;;;;;5076314;28;20200;-67
2021/07/14 01:54:14;;;;;;;18.20;16.40;;;20.40;99.90;;;;;;5075900;28;20185;-66
2021/07/14 01:56:41;;;;;;;18.87;16.87;;;20.40;99.90;;;;;;5077924;28;20168;-68
2021/07/14 01:59:08;;;;;;;18.87;16.70;;;20.40;99.90;;;;;;5078073;28;20169;-68
2021/07/14 02:01:37;;;;;;;18.23;16.47;;;20.40;99.90;;;;;;5074418;28;20272;-65
2021/07/14 02:06:49;;;;;;;18.53;16.67;;;20.40;99.90;;;;;;5056631;28;20204;-67
2021/07/14 02:09:16;;;;;;;22.10;16.67;;;20.40;99.90;;;;;;5052455;28;20662;-67
2021/07/14 02:11:45;;;;;;;19.23;17.50;;;20.40;99.90;;;;;;5051763;28;20534;-67
2021/07/14 02:14:14;;;;;;;19.30;16.60;;;20.40;99.90;;;;;;5053877;28;20161;-67
2021/07/14 02:16:42;;;;;;;20.97;16.43;;;20.40;99.90;;;;;;5051754;28;20170;-68
2021/07/14 02:19:10;;;;;;;18.43;16.63;;;20.40;99.90;;;;;;5053644;28;20281;-74
2021/07/14 02:21:36;;;;;;;17.97;16.23;;;20.40;99.90;;;;;;5051430;28;20244;-67
2021/07/14 02:24:02;;;;;;;17.30;15.43;;;20.40;99.90;;;;;;5053278;28;20575;-67
2021/07/14 02:26:30;;;;;;;19.27;17.17;;;20.40;99.90;;;;;;5054307;28;20213;-67
2021/07/14 02:28:56;;;;;;;18.20;16.53;;;20.40;99.90;;;;;;5054042;28;20661;-67
2021/07/14 02:31:22;;;;;;;19.67;15.67;;;20.40;99.90;;;;;;5051515;28;20227;-66
2021/07/14 02:33:47;;;;;;;16.37;14.67;;;20.40;99.90;;;;;;5052541;28;20167;-66
2021/07/14 02:36:15;;;;;;;17.50;15.70;;;20.40;99.90;;;;;;5052771;28;20178;-66
2021/07/14 02:38:44;;;;;;;17.70;15.37;;;20.50;99.90;;;;;;5052429;28;20612;-67
2021/07/14 02:41:16;;;;;;;19.23;15.83;;;20.50;99.90;;;;;;5043113;28;20181;-66
2021/07/14 02:43:48;;;;;;;16.73;15.07;;;20.60;99.90;;;;;;5052017;28;20169;-66
2021/07/14 02:46:23;;;;;;;16.83;15.13;;;20.60;99.90;;;;;;5052167;28;20210;-65
2021/07/14 02:48:52;;;;;;;16.10;14.50;;;20.60;99.90;;;;;;5052053;28;20661;-65
2021/07/14 02:51:18;;;;;;;16.10;14.50;;;20.60;99.90;;;;;;5052040;28;20166;-66
2021/07/14 02:53:50;;;;;;;15.77;14.27;;;20.60;99.90;;;;;;5051948;28;20170;-66
2021/07/14 02:56:20;;;;;;;21.70;14.70;;;20.70;99.90;;;;;;5051874;28;20169;-65
2021/07/14 02:58:51;;;;;;;16.67;15.13;;;20.70;99.90;;;;;;5051826;28;20194;-66
2021/07/14 03:01:17;;;;;;;17.50;15.67;;;20.70;99.90;;;;;;5051956;28;20180;-65
2021/07/14 03:03:44;;;;;;;16.40;14.87;;;20.70;99.90;;;;;;5051668;28;20248;-66
2021/07/14 03:06:11;;;;;;;15.60;14.07;;;20.70;99.90;;;;;;5051791;28;20190;-65
2021/07/14 03:08:38;;;;;;;15.90;14.27;;;20.70;99.90;;;;;;5051646;28;20555;-65
2021/07/14 03:11:04;;;;;;;17.60;15.70;;;20.80;99.90;;;;;;5052206;28;20193;-65
2021/07/14 03:13:31;;;;;;;17.13;15.40;;;20.80;99.90;;;;;;5051618;28;20173;-65
2021/07/14 03:15:58;;;;;;;17.23;14.60;;;20.90;99.90;;;;;;5045179;28;20171;-65
2021/07/14 03:18:29;;;;;;;16.20;14.60;;;20.90;99.90;;;;;;5047580;28;20195;-65
2021/07/14 03:20:56;;;;;;;16.83;14.00;;;20.90;99.90;;;;;;5053037;28;20196;-65
2021/07/14 03:23:23;;;;;;;15.13;12.93;;;21.00;99.90;;;;;;5055371;28;20204;-65
2021/07/14 03:25:54;;;;;;;15.70;13.83;;;21.00;99.90;;;;;;5055680;28;20248;-65
2021/07/14 03:28:20;;;;;;;15.63;13.43;;;21.10;99.90;;;;;;5055714;28;20194;-65
2021/07/14 03:30:47;;;;;;;17.83;13.83;;;21.10;99.90;;;;;;5056025;28;20193;-66
2021/07/14 03:33:14;;;;;;;14.27;12.80;;;21.20;99.90;;;;;;5055349;28;20181;-66
2021/07/14 03:35:40;;;;;;;14.87;13.17;;;21.20;99.90;;;;;;5055797;28;20538;-67
2021/07/14 03:38:09;;;;;;;15.40;12.70;;;21.30;99.90;;;;;;5055636;28;20199;-64
2021/07/14 03:40:39;;;;;;;16.53;13.23;;;21.30;99.90;;;;;;5055788;28;20238;-65
2021/07/14 03:43:05;;;;;;;15.00;13.50;;;21.40;99.90;;;;;;5055181;28;20174;-66
2021/07/14 03:45:33;;;;;;;18.83;12.87;;;21.50;99.90;;;;;;5055344;28;20654;-66
2021/07/14 03:47:59;;;;;;;15.20;12.37;;;21.50;99.90;;;;;;5052126;28;20203;-67
2021/07/14 03:50:25;;;;;;;12.97;11.67;;;21.60;99.90;;;;;;5055344;28;20185;-66
2021/07/14 03:52:52;;;;;;;14.50;13.00;;;21.60;99.90;;;;;;5053598;28;20181;-66
2021/07/14 03:55:19;;;;;;;17.07;12.03;;;21.60;99.90;;;;;;5055127;28;20174;-65
2021/07/14 03:57:45;;;;;;;13.63;12.30;;;21.70;99.90;;;;;;5054901;28;20684;-66
2021/07/14 04:00:12;;;;;;;16.30;12.70;;;21.70;99.90;;;;;;5055055;28;20178;-66
2021/07/14 04:02:41;;;;;;;13.43;12.03;;;21.70;99.90;;;;;;5054711;28;20185;-65
2021/07/14 04:05:07;;;;;;;13.97;12.47;;;21.70;99.90;;;;;;5054614;28;20671;-65
2021/07/14 04:07:34;;;;;;;15.07;11.80;;;21.70;99.90;;;;;;5054789;28;20211;-67
2021/07/14 04:10:02;;;;;;;18.07;12.40;;;21.70;99.90;;;;;;5055290;28;20701;-67
2021/07/14 04:12:28;;;;;;;14.43;13.03;;;21.70;99.90;;;;;;5054782;28;20562;-67
2021/07/14 04:14:53;;;;;;;14.47;13.03;;;21.70;99.90;;;;;;5054671;28;20174;-66
2021/07/14 04:17:19;;;;;;;16.63;12.83;;;21.80;99.90;;;;;;5053255;28;20252;-66
2021/07/14 04:19:44;;;;;;;13.60;12.30;;;21.80;99.90;;;;;;5054654;28;20542;-64
2021/07/14 04:22:12;;;;;;;12.47;11.33;;;21.80;99.90;;;;;;5054339;28;21276;-65
2021/07/14 04:24:38;;;;;;;16.27;11.37;;;21.90;99.90;;;;;;5053150;28;20176;-65
2021/07/14 04:27:04;;;;;;;14.00;11.53;;;21.90;99.90;;;;;;5054536;28;20182;-65
2021/07/14 04:29:30;;;;;;;15.07;12.37;;;21.90;99.90;;;;;;5053143;28;20638;-65
2021/07/14 04:31:55;;;;;;;17.17;13.13;;;21.90;99.90;;;;;;5054094;28;20186;-65
2021/07/14 04:34:21;;;;;;;15.00;12.63;;;21.90;99.90;;;;;;5054268;28;20615;-64
2021/07/14 04:36:46;;;;;;;14.47;12.97;;;21.90;99.90;;;;;;5054199;28;20167;-65
2021/07/14 04:39:12;;;;;;;14.30;12.73;;;21.90;99.90;;;;;;5054264;28;20200;-65
2021/07/14 04:41:39;;;;;;;14.87;12.37;;;22.00;99.90;;;;;;5054292;28;20227;-65
2021/07/14 04:44:07;;;;;;;16.33;11.90;;;22.10;99.90;;;;;;5054285;28;20162;-65
2021/07/14 04:46:34;;;;;;;14.30;12.77;;;22.10;99.90;;;;;;5054531;28;20212;-65
2021/07/14 04:49:00;;;;;;;13.97;12.27;;;22.10;99.90;;;;;;5054040;28;20251;-66
2021/07/14 04:51:26;;;;;;;13.17;11.87;;;22.20;99.90;;;;;;5054201;28;20173;-64
2021/07/14 04:53:52;;;;;;;13.27;11.90;;;22.20;99.90;;;;;;5053785;28;20181;-65
2021/07/14 04:56:18;;;;;;;15.10;12.03;;;22.30;99.90;;;;;;5053868;28;20184;-64
2021/07/14 04:58:47;;;;;;;16.00;11.50;;;22.40;99.90;;;;;;5053983;28;20191;-66
2021/07/14 05:01:13;;;;;;;14.63;11.13;;;22.70;99.90;;;;;;5054285;28;20167;-66
2021/07/14 05:03:40;;;;;;;14.40;11.77;;;22.90;99.90;;;;;;5052426;28;20596;-65
2021/07/14 05:06:06;;;;;;;13.30;11.90;;;23.00;99.90;;;;;;5053585;28;20239;-66
2021/07/14 05:08:31;;;;;;;12.63;11.33;;;23.10;99.90;;;;;;5053779;28;20232;-66
2021/07/14 05:10:57;;;;;;;13.00;11.67;;;23.20;99.90;;;;;;5053748;28;20602;-65
2021/07/14 05:13:22;;;;;;;12.40;11.02;;;23.30;99.90;;;;;;5053225;28;20184;-67
2021/07/14 05:15:48;;;;;;;12.70;11.40;;;23.40;99.90;;;;;;5052261;28;20263;-65
2021/07/14 05:18:14;;;;;;;14.07;11.30;;;23.40;99.90;;;;;;5053268;28;20537;-66
2021/07/14 05:20:40;;;;;;;17.35;11.40;;;23.50;99.90;;;;;;5053255;28;20180;-66
2021/07/14 05:23:06;;;;;;;12.77;11.10;;;23.50;99.90;;;;;;5053442;28;20600;-65
2021/07/14 05:25:32;;;;;;;12.43;10.82;;;23.50;99.90;;;;;;5053877;28;20252;-66
2021/07/14 05:27:58;;;;;;;12.70;11.35;;;23.60;99.90;;;;;;5053743;28;20191;-65
2021/07/14 05:30:23;;;;;;;13.77;10.65;;;23.70;99.90;;;;;;5053418;28;20179;-66
2021/07/14 05:32:49;;;;;;;12.07;10.98;;;23.80;99.90;;;;;;5053554;28;20180;-65
2021/07/14 05:35:14;;;;;;;11.55;10.35;;;23.80;99.90;;;;;;5053731;28;20175;-66
2021/07/14 05:37:40;;;;;;;11.70;10.73;;;23.90;99.90;;;;;;5054205;28;20199;-66
2021/07/14 05:40:06;;;;;;;12.10;10.85;;;23.90;99.90;;;;;;5064952;28;20226;-65
2021/07/14 05:42:31;;;;;;;12.27;11.02;;;24.20;99.90;;;;;;5073582;28;20212;-65
2021/07/14 05:44:57;;;;;;;11.75;10.70;;;24.10;99.90;;;;;;5074628;28;20227;-67
2021/07/14 05:47:23;;;;;;;12.25;10.95;;;24.20;99.90;;;;;;5076358;28;20736;-66
2021/07/14 05:49:49;;;;;;;12.35;11.13;;;24.30;99.90;;;;;;5076802;28;20204;-66
2021/07/14 05:52:15;;;;;;;11.57;10.57;;;24.30;99.90;;;;;;5075462;28;20171;-65
2021/07/14 05:54:41;;;;;;;12.52;10.30;;;24.20;99.90;;;;;;5075194;28;20169;-66
2021/07/14 05:57:07;;;;;;;15.18;10.90;;;24.10;99.90;;;;;;5069498;28;20167;-67
2021/07/14 05:59:32;;;;;;;12.43;11.13;;;24.10;99.90;;;;;;5054188;28;20175;-67
2021/07/14 06:01:58;;;;;;;12.32;11.20;;;24.20;99.90;;;;;;5053576;28;20183;-68
2021/07/14 06:04:24;;;;;;;12.73;11.52;;;24.40;99.90;;;;;;5052480;28;20220;-69
2021/07/14 06:06:49;;;;;;;12.93;11.77;;;24.60;99.90;;;;;;5052520;28;20565;-67
2021/07/14 06:09:14;;;;;;;12.02;10.93;;;24.80;99.90;;;;;;5052980;28;20302;-67
2021/07/14 06:11:41;;;;;;;12.57;11.35;;;25.00;99.90;;;;;;5053539;28;20227;-68
2021/07/14 06:14:06;;;;;;;12.63;10.88;;;25.00;99.90;;;;;;5051466;28;20184;-68
2021/07/14 06:16:32;;;;;;;12.65;11.38;;;25.10;99.90;;;;;;5051940;28;20188;-68
2021/07/14 06:18:57;;;;;;;11.80;10.70;;;25.30;99.90;;;;;;5063342;28;20282;-67
2021/07/14 06:21:23;;;;;;;12.35;11.18;;;25.70;99.90;;;;;;5059659;28;20519;-67
2021/07/14 06:23:50;;;;;;;11.75;10.75;;;26.00;99.90;;;;;;5052960;28;20169;-67
2021/07/14 06:26:16;;;;;;;12.05;10.93;;;25.90;99.90;;;;;;5052801;28;20201;-67
2021/07/14 06:28:41;;;;;;;12.20;10.85;;;26.10;99.90;;;;;;5051875;28;20196;-66
2021/07/14 06:31:07;;;;;;;11.48;10.38;;;26.40;99.90;;;;;;5051723;28;20180;-67
2021/07/14 06:33:35;;;;;;;12.10;10.20;;;26.60;99.90;;;;;;5052384;28;20240;-67
2021/07/14 06:36:02;;;;;;;11.75;10.65;;;26.70;99.90;;;;;;5052767;28;20169;-67
2021/07/14 06:38:29;;;;;;;11.50;10.43;;;26.60;99.90;;;;;;5052511;28;20557;-67
2021/07/14 06:40:54;;;;;;;11.20;10.18;;;26.50;99.90;;;;;;5052792;28;20177;-68
2021/07/14 06:43:20;;;;;;;11.40;10.40;;;26.80;99.90;;;;;;5052077;28;20253;-68
2021/07/14 06:45:47;;;;;;;11.05;10.18;;;26.80;99.90;;;;;;5051402;28;20206;-67
2021/07/14 06:48:13;;;;;;;12.18;11.20;;;26.80;99.90;;;;;;5050640;28;20189;-68
2021/07/14 06:50:39;;;;;;;11.50;10.50;;;26.70;99.90;;;;;;5057082;28;20187;-76
2021/07/14 06:53:05;;;;;;;12.07;11.07;;;26.70;99.90;;;;;;5057783;28;20240;-77
2021/07/14 06:55:31;;;;;;;12.23;11.13;;;26.60;99.90;;;;;;5050853;28;20261;-76
